Time;durP1;ratioP1;P1;durP2;ratioP2;P2;SDS_P1;SDS_P2;PMS_P1;PMS_P2;Temp;Humidity;BMP_temperature;BMP_pressure;BME280_temperature;BME280_humidity;BME280_pressure;Samples;Min_cycle;Max_cycle;Signal;HPM_P1;HPM_P2
2021/08/31 00:01:06;;;;;;;21.95;15.40;;;;;;;;;;1882326;76;21103;-52
2021/08/31 00:03:35;;;;;;;34.60;17.02;;;;;;;;;;1882538;76;21152;-52
2021/08/31 00:06:04;;;;;;;22.32;15.85;;;;;;;;;;1882387;76;21036;-49
2021/08/31 00:08:33;;;;;;;22.75;15.83;;;;;;;;;;1882432;76;21035;-52
2021/08/31 00:11:02;;;;;;;18.62;15.98;;;;;;;;;;1882338;76;21080;-50
2021/08/31 00:13:30;;;;;;;22.70;15.75;;;;;;;;;;1882413;75;21036;-51
2021/08/31 00:15:59;;;;;;;20.55;16.15;;;;;;;;;;1882333;76;21098;-50
2021/08/31 00:18:28;;;;;;;19.98;15.63;;;;;;;;;;1882413;76;21495;-51
2021/08/31 00:20:57;;;;;;;19.15;16.32;;;;;;;;;;1882445;75;21126;-51
2021/08/31 00:23:26;;;;;;;22.48;14.90;;;;;;;;;;1882265;76;21137;-52
2021/08/31 00:25:55;;;;;;;25.25;16.40;;;;;;;;;;1882421;76;21024;-51
2021/08/31 00:28:24;;;;;;;22.30;15.68;;;;;;;;;;1882422;76;21102;-52
2021/08/31 00:30:52;;;;;;;23.60;15.10;;;;;;;;;;1882444;76;21032;-50
2021/08/31 00:33:21;;;;;;;21.42;15.38;;;;;;;;;;1882341;76;21102;-52
2021/08/31 00:35:50;;;;;;;23.95;16.37;;;;;;;;;;1882263;76;21028;-51
2021/08/31 00:38:18;;;;;;;20.72;15.28;;;;;;;;;;1882229;76;21065;-51
2021/08/31 00:40:47;;;;;;;17.05;14.38;;;;;;;;;;1882311;75;21052;-52
2021/08/31 00:43:18;;;;;;;22.52;15.38;;;;;;;;;;1882289;76;21083;-50
2021/08/31 00:45:48;;;;;;;22.58;16.17;;;;;;;;;;1882278;75;21032;-51
2021/08/31 00:48:22;;;;;;;20.60;14.93;;;;;;;;;;1882410;76;21467;-51
2021/08/31 00:50:51;;;;;;;17.73;15.38;;;;;;;;;;1882575;76;21048;-51
2021/08/31 00:53:20;;;;;;;25.08;15.38;;;;;;;;;;1882454;76;21034;-52
2021/08/31 00:55:48;;;;;;;20.27;14.23;;;;;;;;;;1882387;76;21083;-51
2021/08/31 00:58:17;;;;;;;18.73;13.93;;;;;;;;;;1882381;76;21036;-49
2021/08/31 01:00:46;;;;;;;19.60;14.98;;;;;;;;;;1882372;75;21072;-53
2021/08/31 01:03:15;;;;;;;30.30;15.45;;;;;;;;;;1882305;76;21024;-53
2021/08/31 01:05:43;;;;;;;20.17;15.25;;;;;;;;;;1882247;76;21004;-51
2021/08/31 01:08:12;;;;;;;16.52;13.93;;;;;;;;;;1882307;76;21094;-51
2021/08/31 01:10:41;;;;;;;18.10;14.78;;;;;;;;;;1882324;76;21095;-51
2021/08/31 01:13:10;;;;;;;19.32;14.80;;;;;;;;;;1882332;76;21032;-51
2021/08/31 01:15:40;;;;;;;18.35;14.60;;;;;;;;;;1882318;76;21032;-52
2021/08/31 01:18:22;;;;;;;20.75;14.10;;;;;;;;;;1882196;76;21036;-51
2021/08/31 01:20:52;;;;;;;20.50;15.05;;;;;;;;;;1882232;75;21037;-50
2021/08/31 01:23:21;;;;;;;18.82;14.55;;;;;;;;;;1881779;76;21049;-53
2021/08/31 01:25:50;;;;;;;23.57;15.30;;;;;;;;;;1882163;76;21037;-52
2021/08/31 01:28:20;;;;;;;24.35;15.78;;;;;;;;;;1882409;76;21024;-52
2021/08/31 01:30:52;;;;;;;22.77;15.18;;;;;;;;;;1882389;76;21025;-51
2021/08/31 01:33:22;;;;;;;19.90;15.48;;;;;;;;;;1882365;75;21020;-52
2021/08/31 01:35:51;;;;;;;20.37;15.18;;;;;;;;;;1882384;76;21020;-49
2021/08/31 01:38:20;;;;;;;22.48;15.18;;;;;;;;;;1877369;76;21134;-49
2021/08/31 01:40:49;;;;;;;33.75;15.20;;;;;;;;;;1872819;76;21053;-51
2021/08/31 01:43:25;;;;;;;23.80;15.05;;;;;;;;;;1872761;75;21040;-52
2021/08/31 01:45:54;;;;;;;22.93;16.65;;;;;;;;;;1872826;76;21032;-52
2021/08/31 01:48:23;;;;;;;19.87;15.45;;;;;;;;;;1873034;76;21083;-51
2021/08/31 01:50:52;;;;;;;24.90;17.02;;;;;;;;;;1872874;75;21005;-51
2021/08/31 01:53:20;;;;;;;16.75;14.03;;;;;;;;;;1872893;77;21040;-52
2021/08/31 01:55:49;;;;;;;23.75;15.28;;;;;;;;;;1872879;77;21052;-52
2021/08/31 01:58:18;;;;;;;21.00;14.03;;;;;;;;;;1872901;76;21037;-52
2021/08/31 02:00:46;;;;;;;18.77;15.05;;;;;;;;;;1873047;77;21061;-51
2021/08/31 02:03:15;;;;;;;25.37;16.23;;;;;;;;;;1872958;75;21021;-52
2021/08/31 02:05:44;;;;;;;26.25;16.50;;;;;;;;;;1872968;77;21009;-52
2021/08/31 02:08:13;;;;;;;25.12;16.75;;;;;;;;;;1872858;76;21037;-53
2021/08/31 02:10:42;;;;;;;23.90;16.48;;;;;;;;;;1872884;75;21025;-50
2021/08/31 02:13:11;;;;;;;17.98;14.07;;;;;;;;;;1872769;76;21037;-51
2021/08/31 02:15:40;;;;;;;19.12;15.10;;;;;;;;;;1872905;77;21037;-55
2021/08/31 02:18:09;;;;;;;21.97;15.20;;;;;;;;;;1872869;76;21115;-48
2021/08/31 02:20:38;;;;;;;20.82;15.93;;;;;;;;;;1872802;77;21053;-52
2021/08/31 02:23:08;;;;;;;18.65;16.32;;;;;;;;;;1872884;76;21084;-52
2021/08/31 02:25:37;;;;;;;24.02;16.48;;;;;;;;;;1872915;77;21546;-52
2021/08/31 02:28:06;;;;;;;22.52;15.90;;;;;;;;;;1872836;77;21060;-52
2021/08/31 02:30:35;;;;;;;23.07;15.75;;;;;;;;;;1872897;75;21021;-52
2021/08/31 02:33:03;;;;;;;19.82;15.80;;;;;;;;;;1872816;76;21110;-52
2021/08/31 02:35:32;;;;;;;19.80;15.63;;;;;;;;;;1872835;76;21037;-52
2021/08/31 02:38:02;;;;;;;19.52;16.07;;;;;;;;;;1874624;76;21056;-52
2021/08/31 02:40:31;;;;;;;24.63;16.12;;;;;;;;;;1882431;76;21000;-50
2021/08/31 02:43:00;;;;;;;23.15;15.75;;;;;;;;;;1882382;76;21025;-51
2021/08/31 02:45:29;;;;;;;20.40;15.95;;;;;;;;;;1882389;76;21102;-51
2021/08/31 02:47:58;;;;;;;23.62;16.87;;;;;;;;;;1882283;76;21036;-49
2021/08/31 02:50:27;;;;;;;23.75;16.55;;;;;;;;;;1882281;76;21134;-50
2021/08/31 02:52:56;;;;;;;27.95;16.95;;;;;;;;;;1882411;76;21087;-52
2021/08/31 02:55:25;;;;;;;23.95;16.55;;;;;;;;;;1882226;75;21025;-50
2021/08/31 02:57:55;;;;;;;21.12;16.25;;;;;;;;;;1882265;75;21004;-52
2021/08/31 03:00:30;;;;;;;32.98;16.48;;;;;;;;;;1882300;76;21053;-52
2021/08/31 03:02:54;;;;;;;28.40;16.15;;;;;;;;;;1881708;76;21502;-52
2021/08/31 03:05:23;;;;;;;20.88;15.28;;;;;;;;;;1882379;76;21020;-52
2021/08/31 03:07:52;;;;;;;24.80;16.67;;;;;;;;;;1882217;76;21098;-52
2021/08/31 03:10:23;;;;;;;19.67;15.83;;;;;;;;;;1882294;76;21017;-51
2021/08/31 03:12:51;;;;;;;22.13;16.73;;;;;;;;;;1882254;76;21030;-52
2021/08/31 03:15:20;;;;;;;19.98;15.55;;;;;;;;;;1882258;75;21028;-52
2021/08/31 03:17:51;;;;;;;23.70;14.80;;;;;;;;;;1882277;75;21067;-51
2021/08/31 03:20:19;;;;;;;21.60;15.40;;;;;;;;;;1882151;76;21052;-52
2021/08/31 03:22:48;;;;;;;20.75;16.50;;;;;;;;;;1882259;76;21017;-51
2021/08/31 03:25:17;;;;;;;21.48;18.27;;;;;;;;;;1882242;76;21099;-50
2021/08/31 03:27:46;;;;;;;27.27;18.27;;;;;;;;;;1882304;76;21033;-51
2021/08/31 03:30:17;;;;;;;27.52;17.75;;;;;;;;;;1882307;75;21033;-51
2021/08/31 03:32:45;;;;;;;30.62;18.73;;;;;;;;;;1882196;75;21522;-52
2021/08/31 03:35:15;;;;;;;24.27;17.60;;;;;;;;;;1882403;76;21205;-50
2021/08/31 03:37:44;;;;;;;27.50;21.90;;;;;;;;;;1882269;76;21032;-52
2021/08/31 03:40:13;;;;;;;33.95;23.50;;;;;;;;;;1873944;76;21052;-51
2021/08/31 03:42:42;;;;;;;30.68;22.50;;;;;;;;;;1872895;77;21096;-51
2021/08/31 03:45:11;;;;;;;35.03;24.43;;;;;;;;;;1872825;77;21106;-53
2021/08/31 03:47:40;;;;;;;32.10;22.35;;;;;;;;;;1872853;77;21100;-52
2021/08/31 03:50:09;;;;;;;73.80;25.80;;;;;;;;;;1872929;75;21025;-52
2021/08/31 03:52:37;;;;;;;32.73;21.82;;;;;;;;;;1872921;77;21048;-50
2021/08/31 03:55:07;;;;;;;32.20;21.70;;;;;;;;;;1872907;75;21028;-50
2021/08/31 03:57:36;;;;;;;30.08;20.20;;;;;;;;;;1872886;76;21108;-53
2021/08/31 04:00:05;;;;;;;26.77;19.77;;;;;;;;;;1872736;76;21106;-52
2021/08/31 04:02:34;;;;;;;36.80;21.37;;;;;;;;;;1872745;77;21057;-51
2021/08/31 04:05:03;;;;;;;25.20;18.25;;;;;;;;;;1872917;77;21037;-51
2021/08/31 04:07:32;;;;;;;44.60;21.42;;;;;;;;;;1872860;76;21098;-51
2021/08/31 04:10:01;;;;;;;28.20;19.25;;;;;;;;;;1872881;76;21099;-49
2021/08/31 04:12:30;;;;;;;32.35;19.98;;;;;;;;;;1872938;77;21028;-51
2021/08/31 04:14:58;;;;;;;27.50;20.75;;;;;;;;;;1872909;77;21099;-52
2021/08/31 04:17:27;;;;;;;28.80;19.30;;;;;;;;;;1872911;77;21087;-52
2021/08/31 04:19:56;;;;;;;34.43;19.82;;;;;;;;;;1872826;77;21037;-51
2021/08/31 04:22:25;;;;;;;26.80;18.98;;;;;;;;;;1872687;77;21048;-52
2021/08/31 04:24:53;;;;;;;26.15;18.07;;;;;;;;;;1872782;77;21029;-52
2021/08/31 04:27:22;;;;;;;27.73;16.20;;;;;;;;;;1872787;77;21049;-52
2021/08/31 04:29:51;;;;;;;23.07;16.82;;;;;;;;;;1872803;75;21045;-50
2021/08/31 04:32:20;;;;;;;121.97;80.75;;;;;;;;;;1872750;76;21041;-52
2021/08/31 04:34:52;;;;;;;76.25;59.00;;;;;;;;;;1872624;77;21041;-52
2021/08/31 04:37:19;;;;;;;31.70;20.43;;;;;;;;;;1872657;76;21053;-51
2021/08/31 04:39:48;;;;;;;27.75;16.73;;;;;;;;;;1877638;75;21095;-51
2021/08/31 04:42:17;;;;;;;26.45;18.23;;;;;;;;;;1882316;76;21094;-51
2021/08/31 04:44:46;;;;;;;35.43;17.70;;;;;;;;;;1882143;76;21141;-52
2021/08/31 04:47:20;;;;;;;32.28;16.55;;;;;;;;;;1882168;76;21040;-51
2021/08/31 04:49:45;;;;;;;21.65;15.13;;;;;;;;;;1881393;76;21114;-51
2021/08/31 04:52:14;;;;;;;25.52;14.85;;;;;;;;;;1882161;75;21016;-52
2021/08/31 04:54:43;;;;;;;21.75;15.60;;;;;;;;;;1882114;75;21029;-52
2021/08/31 04:57:12;;;;;;;22.42;15.98;;;;;;;;;;1882145;76;21032;-50
2021/08/31 04:59:40;;;;;;;21.73;14.70;;;;;;;;;;1882157;75;21036;-50
2021/08/31 05:02:09;;;;;;;25.85;16.55;;;;;;;;;;1882149;76;21033;-51
2021/08/31 05:04:38;;;;;;;28.80;19.62;;;;;;;;;;1882214;76;21134;-52
2021/08/31 05:07:10;;;;;;;21.97;16.27;;;;;;;;;;1882187;76;21044;-51
2021/08/31 05:09:37;;;;;;;21.87;17.07;;;;;;;;;;1882038;76;21110;-53
2021/08/31 05:12:06;;;;;;;22.67;15.93;;;;;;;;;;1882143;75;21542;-51
2021/08/31 05:14:35;;;;;;;36.38;20.27;;;;;;;;;;1882061;76;21024;-51
2021/08/31 05:17:04;;;;;;;36.55;22.40;;;;;;;;;;1882001;76;21090;-52
2021/08/31 05:19:33;;;;;;;33.75;23.05;;;;;;;;;;1882025;76;21076;-52
2021/08/31 05:22:02;;;;;;;33.95;23.32;;;;;;;;;;1882168;76;21108;-51
2021/08/31 05:24:31;;;;;;;45.05;19.75;;;;;;;;;;1882113;75;21581;-52
2021/08/31 05:27:00;;;;;;;31.70;20.45;;;;;;;;;;1882129;75;21098;-52
2021/08/31 05:29:29;;;;;;;34.85;18.92;;;;;;;;;;1882100;75;21044;-51
2021/08/31 05:31:58;;;;;;;23.70;14.95;;;;;;;;;;1882137;75;21037;-50
2021/08/31 05:34:27;;;;;;;22.80;14.80;;;;;;;;;;1882205;76;21040;-52
2021/08/31 05:36:56;;;;;;;20.85;14.63;;;;;;;;;;1882162;76;21072;-51
2021/08/31 05:39:32;;;;;;;25.50;15.25;;;;;;;;;;1882080;76;21127;-53
2021/08/31 05:41:55;;;;;;;18.65;13.43;;;;;;;;;;1881509;76;21463;-53
2021/08/31 05:44:24;;;;;;;25.35;14.45;;;;;;;;;;1882025;76;21052;-51
2021/08/31 05:46:53;;;;;;;17.15;13.13;;;;;;;;;;1882092;76;21150;-52
2021/08/31 05:49:22;;;;;;;24.25;14.18;;;;;;;;;;1882070;76;21118;-52
2021/08/31 05:51:50;;;;;;;22.13;15.15;;;;;;;;;;1882165;76;21037;-52
2021/08/31 05:54:20;;;;;;;16.97;12.95;;;;;;;;;;1882149;76;21020;-53
2021/08/31 05:56:49;;;;;;;23.80;14.07;;;;;;;;;;1882070;76;21025;-52
2021/08/31 05:59:18;;;;;;;18.27;13.50;;;;;;;;;;1882053;75;21107;-52
2021/08/31 06:01:47;;;;;;;19.62;13.00;;;;;;;;;;1882228;75;21032;-52
2021/08/31 06:04:16;;;;;;;20.37;12.50;;;;;;;;;;1882161;76;21032;-52
2021/08/31 06:06:45;;;;;;;25.30;14.63;;;;;;;;;;1882070;76;21037;-50
2021/08/31 06:09:13;;;;;;;21.68;14.28;;;;;;;;;;1882143;76;21029;-52
2021/08/31 06:11:42;;;;;;;20.10;12.78;;;;;;;;;;1882141;75;21095;-52
2021/08/31 06:14:11;;;;;;;18.65;12.43;;;;;;;;;;1882136;76;21052;-52
2021/08/31 06:16:40;;;;;;;23.77;13.25;;;;;;;;;;1882171;75;21028;-52
2021/08/31 06:19:09;;;;;;;19.95;13.78;;;;;;;;;;1882178;76;21040;-52
2021/08/31 06:21:37;;;;;;;18.65;13.55;;;;;;;;;;1882100;76;21064;-52
2021/08/31 06:24:06;;;;;;;18.48;13.40;;;;;;;;;;1882181;76;21037;-53
2021/08/31 06:26:35;;;;;;;17.35;13.32;;;;;;;;;;1882094;75;21044;-51
2021/08/31 06:29:04;;;;;;;20.05;12.28;;;;;;;;;;1882132;76;21041;-49
2021/08/31 06:31:33;;;;;;;21.12;13.48;;;;;;;;;;1882077;76;21044;-53
2021/08/31 06:34:02;;;;;;;24.67;13.00;;;;;;;;;;1882268;75;21041;-50
2021/08/31 06:36:31;;;;;;;19.32;13.50;;;;;;;;;;1882312;76;21027;-52
2021/08/31 06:38:59;;;;;;;25.62;12.82;;;;;;;;;;1882224;76;21107;-52
2021/08/31 06:41:28;;;;;;;18.27;12.88;;;;;;;;;;1882151;75;21111;-51
2021/08/31 06:43:57;;;;;;;20.12;14.05;;;;;;;;;;1882239;76;21087;-53
2021/08/31 06:46:26;;;;;;;20.08;12.78;;;;;;;;;;1882241;76;21049;-52
2021/08/31 06:48:55;;;;;;;17.87;13.08;;;;;;;;;;1882220;76;21036;-51
2021/08/31 06:51:24;;;;;;;20.40;12.75;;;;;;;;;;1882360;75;21102;-53
2021/08/31 06:53:53;;;;;;;16.45;13.10;;;;;;;;;;1882357;76;21098;-52
2021/08/31 06:56:21;;;;;;;21.57;13.15;;;;;;;;;;1882216;76;21000;-53
2021/08/31 06:58:50;;;;;;;25.57;12.65;;;;;;;;;;1882298;76;21046;-52
2021/08/31 07:01:19;;;;;;;31.80;13.53;;;;;;;;;;1882167;75;21303;-53
2021/08/31 07:03:48;;;;;;;23.07;12.63;;;;;;;;;;1882210;75;21088;-53
2021/08/31 07:06:16;;;;;;;20.35;13.95;;;;;;;;;;1882127;76;21036;-52
2021/08/31 07:08:45;;;;;;;26.75;13.25;;;;;;;;;;1882123;76;21034;-53
2021/08/31 07:11:14;;;;;;;24.10;19.12;;;;;;;;;;1882253;76;21017;-53
2021/08/31 07:13:43;;;;;;;17.85;13.78;;;;;;;;;;1882298;75;21108;-52
2021/08/31 07:16:12;;;;;;;16.37;14.33;;;;;;;;;;1882228;76;21040;-53
2021/08/31 07:18:41;;;;;;;16.35;12.13;;;;;;;;;;1882327;76;21044;-53
2021/08/31 07:21:10;;;;;;;17.77;12.55;;;;;;;;;;1882204;76;21040;-52
2021/08/31 07:23:39;;;;;;;18.60;12.40;;;;;;;;;;1882207;76;21044;-53
2021/08/31 07:26:07;;;;;;;21.25;13.08;;;;;;;;;;1882199;75;21091;-53
2021/08/31 07:28:36;;;;;;;21.05;12.53;;;;;;;;;;1882203;75;21040;-54
2021/08/31 07:31:05;;;;;;;19.87;12.43;;;;;;;;;;1882392;76;21004;-53
2021/08/31 07:33:34;;;;;;;18.62;12.43;;;;;;;;;;1882207;76;21032;-53
2021/08/31 07:36:02;;;;;;;17.50;12.58;;;;;;;;;;1882303;76;21027;-48
2021/08/31 07:38:31;;;;;;;16.75;12.63;;;;;;;;;;1880873;76;21188;-50
2021/08/31 07:41:00;;;;;;;15.75;11.65;;;;;;;;;;1881587;75;21127;-50
2021/08/31 07:43:29;;;;;;;43.80;14.03;;;;;;;;;;1881714;75;21126;-47
2021/08/31 07:45:58;;;;;;;17.30;12.88;;;;;;;;;;1881454;75;21099;-48
2021/08/31 07:48:27;;;;;;;18.70;12.18;;;;;;;;;;1881563;76;21099;-47
2021/08/31 07:50:56;;;;;;;18.48;12.55;;;;;;;;;;1881662;75;21103;-46
2021/08/31 07:53:25;;;;;;;15.38;11.12;;;;;;;;;;1881681;75;21107;-49
2021/08/31 07:55:53;;;;;;;21.00;13.22;;;;;;;;;;1881601;76;21095;-46
2021/08/31 07:58:22;;;;;;;17.30;12.55;;;;;;;;;;1881603;75;21040;-47
2021/08/31 08:00:51;;;;;;;13.32;11.55;;;;;;;;;;1881541;76;21032;-47
2021/08/31 08:03:20;;;;;;;17.12;12.47;;;;;;;;;;1881595;76;21041;-49
2021/08/31 08:05:48;;;;;;;15.15;12.75;;;;;;;;;;1881463;76;21087;-46
2021/08/31 08:08:17;;;;;;;27.17;13.18;;;;;;;;;;1881448;76;21115;-48
2021/08/31 08:10:46;;;;;;;14.38;12.60;;;;;;;;;;1881547;76;21110;-47
2021/08/31 08:13:15;;;;;;;19.57;12.85;;;;;;;;;;1881523;76;21107;-49
2021/08/31 08:15:43;;;;;;;24.15;14.35;;;;;;;;;;1890098;75;21025;-47
2021/08/31 08:18:12;;;;;;;20.48;12.63;;;;;;;;;;1881626;75;21009;-48
2021/08/31 08:20:43;;;;;;;15.25;11.90;;;;;;;;;;1881498;75;21124;-45
2021/08/31 08:23:12;;;;;;;23.02;13.38;;;;;;;;;;1881510;75;21033;-49
2021/08/31 08:25:41;;;;;;;20.02;13.50;;;;;;;;;;1881470;75;20994;-46
2021/08/31 08:28:10;;;;;;;18.25;13.32;;;;;;;;;;1881583;75;21087;-49
2021/08/31 08:30:39;;;;;;;26.10;15.90;;;;;;;;;;1881517;76;21026;-49
2021/08/31 08:33:08;;;;;;;21.60;14.70;;;;;;;;;;1881554;75;21069;-46
2021/08/31 08:35:37;;;;;;;17.20;13.22;;;;;;;;;;1881629;75;21122;-49
2021/08/31 08:38:05;;;;;;;21.30;14.70;;;;;;;;;;1881407;75;21076;-50
2021/08/31 08:40:35;;;;;;;21.90;13.38;;;;;;;;;;1882328;75;21026;-49
2021/08/31 08:43:04;;;;;;;16.55;13.20;;;;;;;;;;1890749;75;21024;-47
2021/08/31 08:45:34;;;;;;;18.15;14.33;;;;;;;;;;1890505;74;21040;-49
2021/08/31 08:48:03;;;;;;;22.30;16.27;;;;;;;;;;1890618;76;21080;-50
2021/08/31 08:50:33;;;;;;;20.32;15.78;;;;;;;;;;1890646;76;21024;-50
2021/08/31 08:53:03;;;;;;;28.50;15.00;;;;;;;;;;1890485;76;21020;-50
2021/08/31 08:55:32;;;;;;;17.35;15.05;;;;;;;;;;1890717;75;21533;-49
2021/08/31 08:58:00;;;;;;;25.60;14.40;;;;;;;;;;1890561;75;21099;-51
2021/08/31 09:00:47;;;;;;;20.35;14.38;;;;;;;;;;1890714;75;21098;-49
2021/08/31 09:03:20;;;;;;;19.27;14.80;;;;;;;;;;1890709;75;21040;-46
2021/08/31 09:05:49;;;;;;;20.25;15.53;;;;;;;;;;1890869;74;21142;-48
2021/08/31 09:08:17;;;;;;;24.80;17.25;;;;;;;;;;1890679;75;21153;-52
2021/08/31 09:10:47;;;;;;;21.40;15.28;;;;;;;;;;1890706;76;21029;-51
2021/08/31 09:13:17;;;;;;;32.95;21.62;;;;;;;;;;1890879;76;21044;-50
2021/08/31 09:15:46;;;;;;;20.55;16.52;;;;;;;;;;1890679;75;21024;-47
2021/08/31 09:18:16;;;;;;;23.38;17.45;;;;;;;;;;1890587;75;21082;-49
2021/08/31 09:20:55;;;;;;;21.97;13.98;;;;;;;;;;1890790;75;21130;-51
2021/08/31 09:23:29;;;;;;;19.75;16.23;;;;;;;;;;1889620;74;21454;-49
2021/08/31 09:25:59;;;;;;;24.77;15.90;;;;;;;;;;1890572;74;21055;-49
2021/08/31 09:28:31;;;;;;;24.02;15.20;;;;;;;;;;1890459;75;21075;-51
2021/08/31 09:31:04;;;;;;;20.55;15.13;;;;;;;;;;1892553;75;21139;-51
2021/08/31 09:33:34;;;;;;;26.10;15.30;;;;;;;;;;1899316;74;21081;-49
2021/08/31 09:36:04;;;;;;;23.22;15.40;;;;;;;;;;1899320;74;21085;-49
2021/08/31 09:38:41;;;;;;;18.05;13.55;;;;;;;;;;1898844;75;21107;-51
2021/08/31 09:41:10;;;;;;;16.32;14.45;;;;;;;;;;1901118;74;21084;-51
2021/08/31 09:43:40;;;;;;;21.25;13.05;;;;;;;;;;1901569;74;21077;-48
2021/08/31 09:46:09;;;;;;;18.70;12.15;;;;;;;;;;1889260;75;21149;-49
2021/08/31 09:48:39;;;;;;;18.80;13.45;;;;;;;;;;1890623;74;21074;-53
2021/08/31 09:51:09;;;;;;;17.10;13.38;;;;;;;;;;1890375;76;21120;-51
2021/08/31 09:53:37;;;;;;;17.95;14.05;;;;;;;;;;1890297;75;21102;-52
2021/08/31 09:56:07;;;;;;;20.30;12.85;;;;;;;;;;1895209;74;21106;-51
2021/08/31 09:58:37;;;;;;;19.73;14.93;;;;;;;;;;1922318;74;21477;-52
2021/08/31 10:01:06;;;;;;;25.77;14.10;;;;;;;;;;1923101;74;21027;-52
2021/08/31 10:03:35;;;;;;;20.97;13.55;;;;;;;;;;1923696;74;21077;-51
2021/08/31 10:06:04;;;;;;;15.65;13.35;;;;;;;;;;1923426;74;21003;-52
2021/08/31 10:08:34;;;;;;;21.45;15.58;;;;;;;;;;1923872;74;21001;-52
2021/08/31 10:11:04;;;;;;;20.20;14.38;;;;;;;;;;1923869;74;21031;-49
2021/08/31 10:13:34;;;;;;;20.00;15.30;;;;;;;;;;1923521;74;21094;-50
2021/08/31 10:16:03;;;;;;;16.82;14.00;;;;;;;;;;1923806;74;21043;-52
2021/08/31 10:18:31;;;;;;;26.10;14.87;;;;;;;;;;1923595;74;21082;-51
2021/08/31 10:21:13;;;;;;;17.87;13.15;;;;;;;;;;1910302;74;21042;-52
2021/08/31 10:23:46;;;;;;;19.45;14.00;;;;;;;;;;1890675;76;21082;-51
2021/08/31 10:26:26;;;;;;;17.62;13.75;;;;;;;;;;1890571;76;21105;-52
2021/08/31 10:29:11;;;;;;;15.70;12.18;;;;;;;;;;1890564;76;21078;-50
2021/08/31 10:31:40;;;;;;;19.60;13.05;;;;;;;;;;1890709;75;21108;-53
2021/08/31 10:34:27;;;;;;;20.43;14.53;;;;;;;;;;1890737;76;21105;-48
2021/08/31 10:37:06;;;;;;;17.37;12.00;;;;;;;;;;1890572;76;21050;-48
2021/08/31 10:39:41;;;;;;;22.52;14.00;;;;;;;;;;1890749;76;21026;-52
2021/08/31 10:42:11;;;;;;;18.30;13.83;;;;;;;;;;1883304;75;21090;-49
2021/08/31 10:44:41;;;;;;;29.95;12.93;;;;;;;;;;1872049;77;21090;-52
2021/08/31 10:47:11;;;;;;;16.57;12.63;;;;;;;;;;1872011;77;21497;-51
2021/08/31 10:50:00;;;;;;;23.22;14.10;;;;;;;;;;1871857;77;21007;-48
2021/08/31 10:52:36;;;;;;;20.57;13.60;;;;;;;;;;1872072;75;21077;-52
2021/08/31 10:55:09;;;;;;;20.37;13.43;;;;;;;;;;1871969;76;21559;-50
2021/08/31 10:57:39;;;;;;;16.30;13.35;;;;;;;;;;1870420;77;21015;-52
2021/08/31 11:00:18;;;;;;;18.57;14.45;;;;;;;;;;1872021;75;21106;-50
2021/08/31 11:02:52;;;;;;;24.92;15.38;;;;;;;;;;1871913;75;21152;-51
2021/08/31 11:05:25;;;;;;;21.60;14.58;;;;;;;;;;1871939;77;21082;-53
2021/08/31 11:07:55;;;;;;;22.30;13.40;;;;;;;;;;1872134;76;21085;-52
2021/08/31 11:10:25;;;;;;;18.75;13.30;;;;;;;;;;1872593;77;21101;-46
2021/08/31 11:12:54;;;;;;;20.88;14.75;;;;;;;;;;1872955;76;21015;-48
2021/08/31 11:15:26;;;;;;;24.55;13.38;;;;;;;;;;1872932;77;21027;-47
2021/08/31 11:17:55;;;;;;;24.30;14.63;;;;;;;;;;1872932;76;21105;-48
2021/08/31 11:20:25;;;;;;;22.40;15.85;;;;;;;;;;1872855;77;21047;-47
2021/08/31 11:23:10;;;;;;;20.90;15.18;;;;;;;;;;1872927;76;21019;-48
2021/08/31 11:25:40;;;;;;;24.15;15.15;;;;;;;;;;1872860;76;21066;-49
2021/08/31 11:28:10;;;;;;;15.38;11.10;;;;;;;;;;1872788;77;21148;-48
2021/08/31 11:30:59;;;;;;;22.22;13.98;;;;;;;;;;1872339;76;21055;-49
2021/08/31 11:33:29;;;;;;;22.85;14.47;;;;;;;;;;1872772;77;21023;-49
2021/08/31 11:36:02;;;;;;;17.12;13.90;;;;;;;;;;1872799;75;21070;-48
2021/08/31 11:38:42;;;;;;;23.62;17.02;;;;;;;;;;1873062;76;21488;-49
2021/08/31 11:41:21;;;;;;;36.00;16.02;;;;;;;;;;1872744;76;21562;-49
2021/08/31 11:43:54;;;;;;;27.42;14.47;;;;;;;;;;1889249;75;21039;-49
2021/08/31 11:46:24;;;;;;;21.93;13.88;;;;;;;;;;1891781;76;21453;-49
2021/08/31 11:49:07;;;;;;;36.95;16.10;;;;;;;;;;1891774;76;21072;-47
2021/08/31 11:51:36;;;;;;;22.77;16.57;;;;;;;;;;1891485;75;21124;-48
2021/08/31 11:54:06;;;;;;;18.82;14.47;;;;;;;;;;1891860;76;21038;-47
2021/08/31 11:56:35;;;;;;;30.55;16.55;;;;;;;;;;1891867;76;21088;-46
2021/08/31 11:59:04;;;;;;;19.90;15.90;;;;;;;;;;1891899;76;21088;-48
2021/08/31 12:01:34;;;;;;;18.92;14.95;;;;;;;;;;1891787;76;21156;-47
2021/08/31 12:04:04;;;;;;;25.80;14.65;;;;;;;;;;1891852;76;21002;-48
2021/08/31 12:06:32;;;;;;;22.58;16.35;;;;;;;;;;1890011;75;20998;-48
2021/08/31 12:09:01;;;;;;;21.60;14.15;;;;;;;;;;1891839;76;21069;-48
2021/08/31 12:11:32;;;;;;;18.52;13.90;;;;;;;;;;1891792;76;21023;-47
2021/08/31 12:14:00;;;;;;;32.60;14.65;;;;;;;;;;1891713;76;21115;-48
2021/08/31 12:16:29;;;;;;;21.87;13.08;;;;;;;;;;1891815;76;21061;-46
2021/08/31 12:18:58;;;;;;;17.62;13.48;;;;;;;;;;1891736;76;21030;-49
2021/08/31 12:21:26;;;;;;;17.65;13.15;;;;;;;;;;1891970;76;21096;-46
2021/08/31 12:23:55;;;;;;;20.62;12.73;;;;;;;;;;1891751;76;21022;-46
2021/08/31 12:26:28;;;;;;;31.68;19.90;;;;;;;;;;1891767;76;21034;-49
2021/08/31 12:29:03;;;;;;;20.90;16.05;;;;;;;;;;1891859;76;21026;-50
2021/08/31 12:31:32;;;;;;;28.12;15.80;;;;;;;;;;1891711;76;21112;-47
2021/08/31 12:34:01;;;;;;;19.00;12.70;;;;;;;;;;1891871;76;21042;-48
2021/08/31 12:36:32;;;;;;;18.55;11.63;;;;;;;;;;1891728;75;21105;-48
2021/08/31 12:39:06;;;;;;;20.97;13.35;;;;;;;;;;1891691;76;21615;-47
2021/08/31 12:41:33;;;;;;;19.60;13.28;;;;;;;;;;1891491;75;21500;-48
2021/08/31 12:44:03;;;;;;;20.65;13.15;;;;;;;;;;1891002;75;21074;-50
2021/08/31 12:46:32;;;;;;;30.57;16.57;;;;;;;;;;1891387;76;21030;-50
2021/08/31 12:49:08;;;;;;;28.87;13.98;;;;;;;;;;1891509;76;21104;-49
2021/08/31 12:51:37;;;;;;;17.45;11.75;;;;;;;;;;1891501;75;21088;-49
2021/08/31 12:54:06;;;;;;;17.77;12.00;;;;;;;;;;1891541;76;21018;-49
2021/08/31 12:56:36;;;;;;;16.82;11.93;;;;;;;;;;1891507;76;20998;-48
2021/08/31 12:59:05;;;;;;;23.27;12.75;;;;;;;;;;1889644;75;21088;-47
2021/08/31 13:01:53;;;;;;;18.67;12.47;;;;;;;;;;1891224;75;20998;-48
2021/08/31 13:04:22;;;;;;;19.15;12.23;;;;;;;;;;1891406;76;21050;-50
2021/08/31 13:06:54;;;;;;;20.52;12.55;;;;;;;;;;1891450;75;21038;-47
2021/08/31 13:09:25;;;;;;;14.20;10.93;;;;;;;;;;1891527;75;21096;-50
2021/08/31 13:11:53;;;;;;;20.48;12.35;;;;;;;;;;1891412;75;21512;-50
2021/08/31 13:14:23;;;;;;;17.10;11.48;;;;;;;;;;1891408;76;21046;-48
2021/08/31 13:16:53;;;;;;;30.37;18.20;;;;;;;;;;1891523;76;21026;-50
2021/08/31 13:19:22;;;;;;;30.15;14.90;;;;;;;;;;1891508;76;21034;-51
2021/08/31 13:21:51;;;;;;;16.97;9.95;;;;;;;;;;1891641;76;21100;-47
2021/08/31 13:24:20;;;;;;;15.60;9.78;;;;;;;;;;1891613;76;21018;-49
2021/08/31 13:26:49;;;;;;;13.60;10.00;;;;;;;;;;1891301;76;21030;-47
2021/08/31 13:29:19;;;;;;;21.75;12.18;;;;;;;;;;1891517;76;21034;-47
2021/08/31 13:31:48;;;;;;;14.95;8.80;;;;;;;;;;1891474;76;21030;-49
2021/08/31 13:34:19;;;;;;;11.50;8.05;;;;;;;;;;1891461;76;21030;-50
2021/08/31 13:36:47;;;;;;;13.85;7.20;;;;;;;;;;1891404;76;21582;-50
2021/08/31 13:39:16;;;;;;;19.65;11.65;;;;;;;;;;1891387;76;21042;-49
2021/08/31 13:41:45;;;;;;;10.60;6.83;;;;;;;;;;1891522;76;21429;-47
2021/08/31 13:44:14;;;;;;;8.43;6.28;;;;;;;;;;1878976;75;21051;-48
2021/08/31 13:46:43;;;;;;;13.10;6.90;;;;;;;;;;1872627;76;21019;-50
2021/08/31 13:49:12;;;;;;;6.42;5.83;;;;;;;;;;1872671;76;21105;-51
2021/08/31 13:51:41;;;;;;;7.83;5.65;;;;;;;;;;1872582;76;21103;-51
2021/08/31 13:54:10;;;;;;;13.30;6.00;;;;;;;;;;1872686;77;21101;-51
2021/08/31 13:56:39;;;;;;;10.58;6.22;;;;;;;;;;1872724;76;21081;-51
2021/08/31 13:59:08;;;;;;;9.38;6.40;;;;;;;;;;1872763;77;21097;-48
2021/08/31 14:01:36;;;;;;;7.70;5.25;;;;;;;;;;1872689;77;21092;-50
2021/08/31 14:04:05;;;;;;;7.85;5.30;;;;;;;;;;1872803;77;21019;-51
2021/08/31 14:06:34;;;;;;;7.75;6.08;;;;;;;;;;1872666;77;21086;-48
2021/08/31 14:09:03;;;;;;;9.30;5.55;;;;;;;;;;1872578;76;21047;-50
2021/08/31 14:11:32;;;;;;;9.75;5.85;;;;;;;;;;1872602;76;21039;-51
2021/08/31 14:14:01;;;;;;;6.75;4.87;;;;;;;;;;1872642;77;21015;-50
2021/08/31 14:16:30;;;;;;;10.63;5.72;;;;;;;;;;1872602;77;21136;-48
2021/08/31 14:18:59;;;;;;;8.63;5.60;;;;;;;;;;1872649;77;21015;-50
2021/08/31 14:21:27;;;;;;;11.28;5.60;;;;;;;;;;1872699;77;21106;-51
2021/08/31 14:23:57;;;;;;;8.58;6.20;;;;;;;;;;1872661;77;21023;-50
2021/08/31 14:26:25;;;;;;;9.43;6.05;;;;;;;;;;1872516;77;21027;-50
2021/08/31 14:28:55;;;;;;;9.65;5.40;;;;;;;;;;1872635;75;21157;-50
2021/08/31 14:31:24;;;;;;;6.62;5.87;;;;;;;;;;1872766;77;21088;-47
2021/08/31 14:33:53;;;;;;;9.50;6.25;;;;;;;;;;1872634;76;21035;-50